sensor_id;sensor_type;location;lat;lon;timestamp;P1;durP1;ratioP1;P2;durP2;ratioP2
43933;SDS011;59081;42.706;23.306;2023-11-22T00:04:59;75.43;;;39.58;;
43933;SDS011;59081;42.706;23.306;2023-11-22T00:10:00;72.80;;;36.60;;
43933;SDS011;59081;42.706;23.306;2023-11-22T00:15:03;71.50;;;39.72;;
43933;SDS011;59081;42.706;23.306;2023-11-22T00:20:06;72.43;;;39.35;;
43933;SDS011;59081;42.706;23.306;2023-11-22T00:25:08;68.07;;;34.60;;
43933;SDS011;59081;42.706;23.306;2023-11-22T00:30:09;71.07;;;39.00;;
43933;SDS011;59081;42.706;23.306;2023-11-22T00:35:10;55.00;;;31.25;;
43933;SDS011;59081;42.706;23.306;2023-11-22T00:40:10;65.90;;;36.53;;
43933;SDS011;59081;42.706;23.306;2023-11-22T00:45:11;58.92;;;32.60;;
43933;SDS011;59081;42.706;23.306;2023-11-22T00:50:12;60.67;;;31.88;;
43933;SDS011;59081;42.706;23.306;2023-11-22T00:55:13;59.75;;;31.90;;
43933;SDS011;59081;42.706;23.306;2023-11-22T01:00:14;56.50;;;30.20;;
43933;SDS011;59081;42.706;23.306;2023-11-22T01:05:15;50.58;;;26.80;;
43933;SDS011;59081;42.706;23.306;2023-11-22T01:10:16;48.78;;;26.63;;
43933;SDS011;59081;42.706;23.306;2023-11-22T01:15:16;44.63;;;25.00;;
43933;SDS011;59081;42.706;23.306;2023-11-22T01:20:17;49.67;;;28.75;;
43933;SDS011;59081;42.706;23.306;2023-11-22T01:25:18;50.03;;;25.67;;
43933;SDS011;59081;42.706;23.306;2023-11-22T01:30:19;41.53;;;24.38;;
43933;SDS011;59081;42.706;23.306;2023-11-22T01:35:20;35.85;;;19.63;;
43933;SDS011;59081;42.706;23.306;2023-11-22T01:40:20;37.95;;;21.58;;
43933;SDS011;59081;42.706;23.306;2023-11-22T01:45:22;40.80;;;20.85;;
43933;SDS011;59081;42.706;23.306;2023-11-22T01:50:23;33.30;;;19.73;;
43933;SDS011;59081;42.706;23.306;2023-11-22T01:55:23;31.02;;;16.95;;
43933;SDS011;59081;42.706;23.306;2023-11-22T02:00:24;28.27;;;17.00;;
43933;SDS011;59081;42.706;23.306;2023-11-22T02:05:31;26.88;;;15.90;;
43933;SDS011;59081;42.706;23.306;2023-11-22T02:10:31;29.95;;;16.88;;
43933;SDS011;59081;42.706;23.306;2023-11-22T02:15:31;27.88;;;15.30;;
43933;SDS011;59081;42.706;23.306;2023-11-22T02:20:33;27.85;;;16.08;;
43933;SDS011;59081;42.706;23.306;2023-11-22T02:25:33;24.70;;;14.57;;
43933;SDS011;59081;42.706;23.306;2023-11-22T02:30:34;25.42;;;15.10;;
43933;SDS011;59081;42.706;23.306;2023-11-22T02:35:35;25.77;;;14.98;;
43933;SDS011;59081;42.706;23.306;2023-11-22T02:40:36;23.42;;;14.02;;
43933;SDS011;59081;42.706;23.306;2023-11-22T02:45:37;21.98;;;13.48;;
43933;SDS011;59081;42.706;23.306;2023-11-22T02:50:38;27.50;;;16.60;;
43933;SDS011;59081;42.706;23.306;2023-11-22T02:55:39;23.27;;;14.07;;
43933;SDS011;59081;42.706;23.306;2023-11-22T03:00:40;28.33;;;15.43;;
43933;SDS011;59081;42.706;23.306;2023-11-22T03:05:41;26.98;;;14.45;;
43933;SDS011;59081;42.706;23.306;2023-11-22T03:10:41;32.13;;;17.08;;
43933;SDS011;59081;42.706;23.306;2023-11-22T03:15:42;25.35;;;15.32;;
43933;SDS011;59081;42.706;23.306;2023-11-22T03:20:42;27.13;;;15.27;;
43933;SDS011;59081;42.706;23.306;2023-11-22T03:25:43;29.90;;;15.45;;
43933;SDS011;59081;42.706;23.306;2023-11-22T03:30:43;25.13;;;14.85;;
43933;SDS011;59081;42.706;23.306;2023-11-22T03:35:44;29.25;;;15.98;;
43933;SDS011;59081;42.706;23.306;2023-11-22T03:40:44;25.50;;;14.25;;
43933;SDS011;59081;42.706;23.306;2023-11-22T03:45:46;28.65;;;15.88;;
43933;SDS011;59081;42.706;23.306;2023-11-22T03:50:46;27.05;;;16.15;;
43933;SDS011;59081;42.706;23.306;2023-11-22T03:55:47;24.40;;;15.63;;
43933;SDS011;59081;42.706;23.306;2023-11-22T04:00:49;35.58;;;18.40;;
43933;SDS011;59081;42.706;23.306;2023-11-22T04:05:52;28.10;;;15.52;;
43933;SDS011;59081;42.706;23.306;2023-11-22T04:10:53;28.58;;;18.17;;
43933;SDS011;59081;42.706;23.306;2023-11-22T04:15:53;32.83;;;17.95;;
43933;SDS011;59081;42.706;23.306;2023-11-22T04:20:55;39.15;;;19.92;;
43933;SDS011;59081;42.706;23.306;2023-11-22T04:30:59;39.70;;;23.15;;
43933;SDS011;59081;42.706;23.306;2023-11-22T04:35:59;38.00;;;21.85;;
43933;SDS011;59081;42.706;23.306;2023-11-22T04:41:00;35.35;;;19.48;;
43933;SDS011;59081;42.706;23.306;2023-11-22T04:46:01;40.53;;;19.98;;
43933;SDS011;59081;42.706;23.306;2023-11-22T04:51:02;31.92;;;21.23;;
43933;SDS011;59081;42.706;23.306;2023-11-22T04:56:02;35.30;;;18.70;;
43933;SDS011;59081;42.706;23.306;2023-11-22T05:01:05;28.98;;;17.33;;
43933;SDS011;59081;42.706;23.306;2023-11-22T05:06:05;29.83;;;18.25;;
43933;SDS011;59081;42.706;23.306;2023-11-22T05:11:07;29.42;;;16.48;;
43933;SDS011;59081;42.706;23.306;2023-11-22T05:16:10;28.58;;;16.83;;
43933;SDS011;59081;42.706;23.306;2023-11-22T05:21:10;27.88;;;16.38;;
43933;SDS011;59081;42.706;23.306;2023-11-22T05:26:11;26.95;;;16.23;;
43933;SDS011;59081;42.706;23.306;2023-11-22T05:31:12;30.23;;;16.80;;
43933;SDS011;59081;42.706;23.306;2023-11-22T05:36:14;29.77;;;16.10;;
43933;SDS011;59081;42.706;23.306;2023-11-22T05:41:16;38.15;;;17.73;;
43933;SDS011;59081;42.706;23.306;2023-11-22T05:46:17;31.55;;;18.00;;
43933;SDS011;59081;42.706;23.306;2023-11-22T05:51:21;35.22;;;20.20;;
43933;SDS011;59081;42.706;23.306;2023-11-22T05:56:22;38.95;;;21.13;;
43933;SDS011;59081;42.706;23.306;2023-11-22T06:01:22;33.88;;;19.83;;
43933;SDS011;59081;42.706;23.306;2023-11-22T06:06:23;39.88;;;24.73;;
43933;SDS011;59081;42.706;23.306;2023-11-22T06:11:23;49.05;;;22.20;;
43933;SDS011;59081;42.706;23.306;2023-11-22T06:16:25;39.08;;;22.23;;
43933;SDS011;59081;42.706;23.306;2023-11-22T06:21:25;46.53;;;26.17;;
43933;SDS011;59081;42.706;23.306;2023-11-22T06:26:27;66.75;;;34.55;;
43933;SDS011;59081;42.706;23.306;2023-11-22T06:31:27;41.92;;;24.40;;
43933;SDS011;59081;42.706;23.306;2023-11-22T06:36:28;41.42;;;22.33;;
43933;SDS011;59081;42.706;23.306;2023-11-22T06:41:29;38.20;;;22.83;;
43933;SDS011;59081;42.706;23.306;2023-11-22T06:46:30;38.97;;;22.33;;
43933;SDS011;59081;42.706;23.306;2023-11-22T06:51:30;47.22;;;26.55;;
43933;SDS011;59081;42.706;23.306;2023-11-22T07:01:51;40.95;;;23.52;;
43933;SDS011;59081;42.706;23.306;2023-11-22T07:06:52;43.05;;;24.67;;
43933;SDS011;59081;42.706;23.306;2023-11-22T07:11:52;42.20;;;22.88;;
43933;SDS011;59081;42.706;23.306;2023-11-22T07:16:53;39.08;;;23.02;;
43933;SDS011;59081;42.706;23.306;2023-11-22T07:21:57;35.60;;;23.00;;
43933;SDS011;59081;42.706;23.306;2023-11-22T07:26:58;41.72;;;24.88;;
43933;SDS011;59081;42.706;23.306;2023-11-22T07:31:58;48.88;;;30.67;;
43933;SDS011;59081;42.706;23.306;2023-11-22T07:36:59;48.88;;;28.45;;
43933;SDS011;59081;42.706;23.306;2023-11-22T07:42:00;41.63;;;26.50;;
43933;SDS011;59081;42.706;23.306;2023-11-22T07:47:04;51.47;;;32.50;;
43933;SDS011;59081;42.706;23.306;2023-11-22T07:52:08;58.80;;;33.45;;
43933;SDS011;59081;42.706;23.306;2023-11-22T07:57:13;48.42;;;31.77;;
43933;SDS011;59081;42.706;23.306;2023-11-22T08:02:14;51.92;;;30.48;;
43933;SDS011;59081;42.706;23.306;2023-11-22T08:07:18;43.72;;;26.77;;
43933;SDS011;59081;42.706;23.306;2023-11-22T08:12:21;40.15;;;24.00;;
43933;SDS011;59081;42.706;23.306;2023-11-22T08:17:23;50.42;;;28.45;;
43933;SDS011;59081;42.706;23.306;2023-11-22T08:22:23;35.30;;;20.95;;
43933;SDS011;59081;42.706;23.306;2023-11-22T08:27:26;26.38;;;17.13;;
43933;SDS011;59081;42.706;23.306;2023-11-22T08:32:27;28.50;;;16.55;;
43933;SDS011;59081;42.706;23.306;2023-11-22T08:37:31;28.25;;;17.00;;
43933;SDS011;59081;42.706;23.306;2023-11-22T08:42:35;28.77;;;17.42;;
43933;SDS011;59081;42.706;23.306;2023-11-22T08:47:35;30.25;;;19.27;;
43933;SDS011;59081;42.706;23.306;2023-11-22T08:52:37;36.05;;;20.90;;
43933;SDS011;59081;42.706;23.306;2023-11-22T08:57:38;34.90;;;21.15;;
43933;SDS011;59081;42.706;23.306;2023-11-22T09:02:39;33.08;;;20.25;;
43933;SDS011;59081;42.706;23.306;2023-11-22T09:07:39;27.00;;;17.15;;
43933;SDS011;59081;42.706;23.306;2023-11-22T09:12:40;24.50;;;15.25;;
43933;SDS011;59081;42.706;23.306;2023-11-22T09:17:42;28.52;;;15.75;;
43933;SDS011;59081;42.706;23.306;2023-11-22T09:22:47;25.13;;;15.80;;
43933;SDS011;59081;42.706;23.306;2023-11-22T09:27:52;38.25;;;24.80;;
43933;SDS011;59081;42.706;23.306;2023-11-22T09:32:59;23.08;;;14.88;;
43933;SDS011;59081;42.706;23.306;2023-11-22T09:38:01;27.97;;;17.10;;
43933;SDS011;59081;42.706;23.306;2023-11-22T09:43:03;38.88;;;21.27;;
43933;SDS011;59081;42.706;23.306;2023-11-22T09:48:07;29.83;;;17.90;;
43933;SDS011;59081;42.706;23.306;2023-11-22T09:53:18;23.52;;;14.98;;
43933;SDS011;59081;42.706;23.306;2023-11-22T09:58:41;23.25;;;15.35;;
43933;SDS011;59081;42.706;23.306;2023-11-22T10:03:44;29.25;;;17.05;;
43933;SDS011;59081;42.706;23.306;2023-11-22T10:08:45;23.23;;;14.60;;
43933;SDS011;59081;42.706;23.306;2023-11-22T10:13:51;28.80;;;16.67;;
43933;SDS011;59081;42.706;23.306;2023-11-22T10:18:52;26.05;;;16.88;;
43933;SDS011;59081;42.706;23.306;2023-11-22T10:23:56;24.33;;;16.05;;
43933;SDS011;59081;42.706;23.306;2023-11-22T10:28:58;19.23;;;14.75;;
43933;SDS011;59081;42.706;23.306;2023-11-22T10:33:58;24.38;;;14.77;;
43933;SDS011;59081;42.706;23.306;2023-11-22T10:38:59;21.25;;;14.25;;
43933;SDS011;59081;42.706;23.306;2023-11-22T10:44:00;23.27;;;13.05;;
43933;SDS011;59081;42.706;23.306;2023-11-22T10:49:02;18.25;;;11.90;;
43933;SDS011;59081;42.706;23.306;2023-11-22T10:54:03;21.10;;;13.73;;
43933;SDS011;59081;42.706;23.306;2023-11-22T10:59:06;25.03;;;13.27;;
43933;SDS011;59081;42.706;23.306;2023-11-22T11:04:19;20.52;;;12.52;;
43933;SDS011;59081;42.706;23.306;2023-11-22T11:09:24;21.63;;;13.43;;
43933;SDS011;59081;42.706;23.306;2023-11-22T11:14:29;24.80;;;15.00;;
43933;SDS011;59081;42.706;23.306;2023-11-22T11:19:34;26.92;;;15.77;;
43933;SDS011;59081;42.706;23.306;2023-11-22T11:24:39;26.75;;;16.75;;
43933;SDS011;59081;42.706;23.306;2023-11-22T11:29:41;28.50;;;16.42;;
43933;SDS011;59081;42.706;23.306;2023-11-22T11:34:49;31.35;;;19.52;;
43933;SDS011;59081;42.706;23.306;2023-11-22T11:39:50;32.80;;;21.42;;
43933;SDS011;59081;42.706;23.306;2023-11-22T11:45:02;25.65;;;17.08;;
43933;SDS011;59081;42.706;23.306;2023-11-22T11:50:06;28.25;;;17.17;;
43933;SDS011;59081;42.706;23.306;2023-11-22T11:55:07;31.58;;;18.27;;
43933;SDS011;59081;42.706;23.306;2023-11-22T12:00:08;27.92;;;18.42;;
43933;SDS011;59081;42.706;23.306;2023-11-22T12:05:12;27.77;;;15.90;;
43933;SDS011;59081;42.706;23.306;2023-11-22T12:10:16;23.17;;;14.18;;
43933;SDS011;59081;42.706;23.306;2023-11-22T12:15:17;25.90;;;14.90;;
43933;SDS011;59081;42.706;23.306;2023-11-22T12:20:19;20.35;;;12.52;;
43933;SDS011;59081;42.706;23.306;2023-11-22T12:25:21;18.17;;;11.75;;
43933;SDS011;59081;42.706;23.306;2023-11-22T12:30:29;24.88;;;12.00;;
43933;SDS011;59081;42.706;23.306;2023-11-22T12:40:45;24.48;;;12.65;;
43933;SDS011;59081;42.706;23.306;2023-11-22T12:45:47;23.67;;;14.18;;
43933;SDS011;59081;42.706;23.306;2023-11-22T12:50:54;27.95;;;14.40;;
43933;SDS011;59081;42.706;23.306;2023-11-22T12:55:55;24.17;;;12.98;;
43933;SDS011;59081;42.706;23.306;2023-11-22T13:00:56;19.90;;;12.52;;
43933;SDS011;59081;42.706;23.306;2023-11-22T13:06:00;20.20;;;11.50;;
43933;SDS011;59081;42.706;23.306;2023-11-22T13:11:01;21.48;;;11.43;;
43933;SDS011;59081;42.706;23.306;2023-11-22T13:16:03;20.50;;;11.70;;
43933;SDS011;59081;42.706;23.306;2023-11-22T13:21:05;18.55;;;11.75;;
43933;SDS011;59081;42.706;23.306;2023-11-22T13:26:06;23.88;;;13.23;;
43933;SDS011;59081;42.706;23.306;2023-11-22T13:31:09;24.25;;;12.90;;
43933;SDS011;59081;42.706;23.306;2023-11-22T13:36:13;15.10;;;9.60;;
43933;SDS011;59081;42.706;23.306;2023-11-22T13:41:14;22.77;;;11.67;;
43933;SDS011;59081;42.706;23.306;2023-11-22T13:46:14;13.35;;;9.13;;
43933;SDS011;59081;42.706;23.306;2023-11-22T13:51:15;15.82;;;8.20;;
43933;SDS011;59081;42.706;23.306;2023-11-22T13:56:15;17.20;;;10.48;;
43933;SDS011;59081;42.706;23.306;2023-11-22T14:01:16;18.30;;;10.38;;
43933;SDS011;59081;42.706;23.306;2023-11-22T14:06:21;21.38;;;12.50;;
43933;SDS011;59081;42.706;23.306;2023-11-22T14:11:21;21.58;;;11.90;;
43933;SDS011;59081;42.706;23.306;2023-11-22T14:16:22;16.83;;;10.55;;
43933;SDS011;59081;42.706;23.306;2023-11-22T14:21:23;24.38;;;10.70;;
43933;SDS011;59081;42.706;23.306;2023-11-22T14:26:24;25.52;;;12.38;;
43933;SDS011;59081;42.706;23.306;2023-11-22T14:31:26;22.95;;;11.48;;
43933;SDS011;59081;42.706;23.306;2023-11-22T14:36:27;20.48;;;12.57;;
43933;SDS011;59081;42.706;23.306;2023-11-22T14:41:29;29.52;;;17.40;;
43933;SDS011;59081;42.706;23.306;2023-11-22T14:46:30;29.02;;;15.57;;
43933;SDS011;59081;42.706;23.306;2023-11-22T14:51:32;18.33;;;11.68;;
43933;SDS011;59081;42.706;23.306;2023-11-22T14:56:33;20.08;;;10.95;;
43933;SDS011;59081;42.706;23.306;2023-11-22T15:01:34;19.02;;;10.75;;
43933;SDS011;59081;42.706;23.306;2023-11-22T15:06:35;18.05;;;9.98;;
43933;SDS011;59081;42.706;23.306;2023-11-22T15:11:36;20.80;;;13.20;;
43933;SDS011;59081;42.706;23.306;2023-11-22T15:16:41;24.85;;;12.75;;
43933;SDS011;59081;42.706;23.306;2023-11-22T15:21:41;23.90;;;10.77;;
43933;SDS011;59081;42.706;23.306;2023-11-22T15:26:42;25.08;;;11.27;;
43933;SDS011;59081;42.706;23.306;2023-11-22T15:31:43;18.50;;;12.32;;
43933;SDS011;59081;42.706;23.306;2023-11-22T15:36:44;23.38;;;11.10;;
43933;SDS011;59081;42.706;23.306;2023-11-22T15:41:45;19.77;;;10.43;;
43933;SDS011;59081;42.706;23.306;2023-11-22T15:46:46;18.02;;;9.75;;
43933;SDS011;59081;42.706;23.306;2023-11-22T15:51:47;22.23;;;9.73;;
43933;SDS011;59081;42.706;23.306;2023-11-22T15:56:48;19.00;;;12.38;;
43933;SDS011;59081;42.706;23.306;2023-11-22T16:01:50;21.42;;;12.55;;
43933;SDS011;59081;42.706;23.306;2023-11-22T16:06:51;16.95;;;10.00;;
43933;SDS011;59081;42.706;23.306;2023-11-22T16:11:51;19.73;;;10.50;;
43933;SDS011;59081;42.706;23.306;2023-11-22T16:16:52;16.05;;;9.48;;
43933;SDS011;59081;42.706;23.306;2023-11-22T16:22:00;21.60;;;11.15;;
43933;SDS011;59081;42.706;23.306;2023-11-22T16:27:01;18.20;;;11.13;;
43933;SDS011;59081;42.706;23.306;2023-11-22T16:32:02;29.02;;;14.82;;
43933;SDS011;59081;42.706;23.306;2023-11-22T16:37:02;24.15;;;12.70;;
43933;SDS011;59081;42.706;23.306;2023-11-22T16:42:03;20.77;;;11.40;;
43933;SDS011;59081;42.706;23.306;2023-11-22T16:47:04;19.58;;;11.95;;
43933;SDS011;59081;42.706;23.306;2023-11-22T16:52:05;20.83;;;10.48;;
43933;SDS011;59081;42.706;23.306;2023-11-22T16:57:05;14.95;;;10.25;;
43933;SDS011;59081;42.706;23.306;2023-11-22T17:02:07;18.20;;;9.75;;
43933;SDS011;59081;42.706;23.306;2023-11-22T17:07:23;15.50;;;10.63;;
43933;SDS011;59081;42.706;23.306;2023-11-22T17:12:23;13.45;;;8.88;;
43933;SDS011;59081;42.706;23.306;2023-11-22T17:17:24;12.60;;;7.70;;
43933;SDS011;59081;42.706;23.306;2023-11-22T17:22:28;16.08;;;9.60;;
43933;SDS011;59081;42.706;23.306;2023-11-22T17:27:29;14.07;;;9.60;;
43933;SDS011;59081;42.706;23.306;2023-11-22T17:32:30;18.80;;;12.20;;
43933;SDS011;59081;42.706;23.306;2023-11-22T17:37:33;16.60;;;9.50;;
43933;SDS011;59081;42.706;23.306;2023-11-22T17:42:34;18.70;;;12.07;;
43933;SDS011;59081;42.706;23.306;2023-11-22T17:47:35;19.88;;;10.73;;
43933;SDS011;59081;42.706;23.306;2023-11-22T17:52:37;14.73;;;10.18;;
43933;SDS011;59081;42.706;23.306;2023-11-22T17:57:38;16.17;;;8.77;;
43933;SDS011;59081;42.706;23.306;2023-11-22T18:02:39;12.40;;;8.73;;
43933;SDS011;59081;42.706;23.306;2023-11-22T18:07:39;14.32;;;7.95;;
43933;SDS011;59081;42.706;23.306;2023-11-22T18:12:40;11.80;;;7.65;;
43933;SDS011;59081;42.706;23.306;2023-11-22T18:17:41;12.05;;;7.15;;
43933;SDS011;59081;42.706;23.306;2023-11-22T18:22:41;16.13;;;8.43;;
43933;SDS011;59081;42.706;23.306;2023-11-22T18:27:42;16.45;;;9.93;;
43933;SDS011;59081;42.706;23.306;2023-11-22T18:32:43;15.23;;;8.98;;
43933;SDS011;59081;42.706;23.306;2023-11-22T18:37:43;14.10;;;8.82;;
43933;SDS011;59081;42.706;23.306;2023-11-22T18:42:44;18.60;;;9.23;;
43933;SDS011;59081;42.706;23.306;2023-11-22T18:47:45;15.38;;;9.45;;
43933;SDS011;59081;42.706;23.306;2023-11-22T18:52:48;13.07;;;7.85;;
43933;SDS011;59081;42.706;23.306;2023-11-22T18:57:49;13.05;;;8.23;;
43933;SDS011;59081;42.706;23.306;2023-11-22T19:02:49;12.00;;;7.70;;
43933;SDS011;59081;42.706;23.306;2023-11-22T19:07:50;15.30;;;8.52;;
43933;SDS011;59081;42.706;23.306;2023-11-22T19:12:51;13.30;;;6.53;;
43933;SDS011;59081;42.706;23.306;2023-11-22T19:17:52;8.15;;;5.75;;
43933;SDS011;59081;42.706;23.306;2023-11-22T19:22:53;12.35;;;8.88;;
43933;SDS011;59081;42.706;23.306;2023-11-22T19:27:54;14.27;;;7.63;;
43933;SDS011;59081;42.706;23.306;2023-11-22T19:32:54;16.27;;;9.23;;
43933;SDS011;59081;42.706;23.306;2023-11-22T19:37:55;11.88;;;8.10;;
43933;SDS011;59081;42.706;23.306;2023-11-22T19:42:57;16.58;;;9.68;;
43933;SDS011;59081;42.706;23.306;2023-11-22T19:47:57;11.93;;;7.35;;
43933;SDS011;59081;42.706;23.306;2023-11-22T19:52:58;9.45;;;6.60;;
43933;SDS011;59081;42.706;23.306;2023-11-22T19:58:00;9.63;;;6.40;;
43933;SDS011;59081;42.706;23.306;2023-11-22T20:08:04;7.60;;;4.85;;
43933;SDS011;59081;42.706;23.306;2023-11-22T20:13:06;6.93;;;3.97;;
43933;SDS011;59081;42.706;23.306;2023-11-22T20:18:10;9.10;;;5.78;;
43933;SDS011;59081;42.706;23.306;2023-11-22T20:23:13;7.30;;;3.83;;
43933;SDS011;59081;42.706;23.306;2023-11-22T20:33:29;6.45;;;4.55;;
43933;SDS011;59081;42.706;23.306;2023-11-22T20:38:33;6.68;;;4.22;;
43933;SDS011;59081;42.706;23.306;2023-11-22T20:43:34;8.45;;;4.85;;
43933;SDS011;59081;42.706;23.306;2023-11-22T20:48:34;6.75;;;5.00;;
43933;SDS011;59081;42.706;23.306;2023-11-22T20:53:35;7.55;;;5.43;;
43933;SDS011;59081;42.706;23.306;2023-11-22T20:58:37;7.30;;;4.82;;
43933;SDS011;59081;42.706;23.306;2023-11-22T21:03:37;7.97;;;5.15;;
43933;SDS011;59081;42.706;23.306;2023-11-22T21:18:58;13.93;;;8.00;;
43933;SDS011;59081;42.706;23.306;2023-11-22T21:24:03;10.73;;;7.53;;
43933;SDS011;59081;42.706;23.306;2023-11-22T21:34:37;12.02;;;8.02;;
43933;SDS011;59081;42.706;23.306;2023-11-22T21:39:38;13.63;;;9.13;;
43933;SDS011;59081;42.706;23.306;2023-11-22T21:44:39;12.98;;;7.95;;
43933;SDS011;59081;42.706;23.306;2023-11-22T21:49:41;12.30;;;8.10;;
43933;SDS011;59081;42.706;23.306;2023-11-22T21:54:42;11.65;;;7.90;;
43933;SDS011;59081;42.706;23.306;2023-11-22T21:59:43;13.30;;;8.13;;
43933;SDS011;59081;42.706;23.306;2023-11-22T22:04:47;12.30;;;7.07;;
43933;SDS011;59081;42.706;23.306;2023-11-22T22:25:44;11.25;;;6.63;;
43933;SDS011;59081;42.706;23.306;2023-11-22T22:30:45;7.85;;;5.53;;
43933;SDS011;59081;42.706;23.306;2023-11-22T22:35:45;8.13;;;5.22;;
43933;SDS011;59081;42.706;23.306;2023-11-22T22:40:47;7.47;;;4.85;;
43933;SDS011;59081;42.706;23.306;2023-11-22T22:45:47;16.45;;;10.90;;
43933;SDS011;59081;42.706;23.306;2023-11-22T22:50:48;7.15;;;5.00;;
43933;SDS011;59081;42.706;23.306;2023-11-22T22:55:49;6.80;;;4.15;;
43933;SDS011;59081;42.706;23.306;2023-11-22T23:00:51;6.38;;;3.58;;
43933;SDS011;59081;42.706;23.306;2023-11-22T23:05:51;6.60;;;3.60;;
43933;SDS011;59081;42.706;23.306;2023-11-22T23:10:52;7.05;;;3.95;;
43933;SDS011;59081;42.706;23.306;2023-11-22T23:15:53;10.10;;;5.03;;
43933;SDS011;59081;42.706;23.306;2023-11-22T23:20:54;7.80;;;4.97;;
43933;SDS011;59081;42.706;23.306;2023-11-22T23:25:54;8.80;;;5.13;;
43933;SDS011;59081;42.706;23.306;2023-11-22T23:30:55;7.30;;;5.07;;
43933;SDS011;59081;42.706;23.306;2023-11-22T23:35:57;8.88;;;5.63;;
43933;SDS011;59081;42.706;23.306;2023-11-22T23:41:02;12.63;;;6.25;;
43933;SDS011;59081;42.706;23.306;2023-11-22T23:46:03;9.18;;;5.22;;
43933;SDS011;59081;42.706;23.306;2023-11-22T23:51:04;6.95;;;4.57;;
43933;SDS011;59081;42.706;23.306;2023-11-22T23:56:06;6.40;;;4.65;;
